Time;durP1;ratioP1;P1;durP2;ratioP2;P2;SDS_P1;SDS_P2;PMS_P1;PMS_P2;Temp;Humidity;BMP_temperature;BMP_pressure;BME280_temperature;BME280_humidity;BME280_pressure;Samples;Min_cycle;Max_cycle;Signal;HPM_P1;HPM_P2
2022/07/26 00:00:54;;;;;;;8.03;7.33;;;;;;;19.98;100.00;96340.31;5051328;27;101865;-62
2022/07/26 00:03:23;;;;;;;9.67;7.73;;;;;;;20.04;100.00;96330.16;5051641;27;102323;-62
2022/07/26 00:05:50;;;;;;;9.70;7.57;;;;;;;20.01;100.00;96333.50;5049317;27;105788;-62
2022/07/26 00:08:17;;;;;;;10.40;7.70;;;;;;;19.93;100.00;96348.53;5055007;27;101848;-62
2022/07/26 00:10:47;;;;;;;8.37;7.23;;;;;;;19.87;100.00;96347.06;5049202;27;104862;-62
2022/07/26 00:13:16;;;;;;;8.17;7.40;;;;;;;19.89;100.00;96352.94;5051635;27;101754;-62
2022/07/26 00:15:44;;;;;;;8.97;6.90;;;;;;;19.98;100.00;96355.69;5051344;27;102315;-62
2022/07/26 00:18:12;;;;;;;7.30;6.60;;;;;;;19.97;100.00;96363.00;5049195;27;105398;-63
2022/07/26 00:20:40;;;;;;;6.97;6.33;;;;;;;19.98;100.00;96367.28;5049905;27;102076;-62
2022/07/26 00:23:07;;;;;;;7.00;5.97;;;;;;;20.00;100.00;96375.09;5050965;27;102112;-62
2022/07/26 00:25:35;;;;;;;6.63;5.63;;;;;;;19.89;100.00;96379.16;5048829;27;105795;-62
2022/07/26 00:28:02;;;;;;;8.77;6.67;;;;;;;19.79;100.00;96392.91;5053013;27;102258;-62
2022/07/26 00:30:29;;;;;;;7.47;6.20;;;;;;;19.81;100.00;96394.19;5050372;27;102622;-63
2022/07/26 00:32:57;;;;;;;7.40;6.43;;;;;;;19.80;100.00;96399.88;5049661;27;101993;-62
2022/07/26 00:35:24;;;;;;;6.50;5.90;;;;;;;19.93;100.00;96396.31;5049383;27;105222;-63
2022/07/26 00:37:53;;;;;;;6.43;5.80;;;;;;;19.99;100.00;96411.28;5049841;27;102631;-63
2022/07/26 00:40:20;;;;;;;9.07;7.30;;;;;;;19.93;100.00;96415.19;5049549;27;102315;-63
2022/07/26 00:42:47;;;;;;;8.13;7.27;;;;;;;20.02;100.00;96411.47;5051141;27;102440;-63
2022/07/26 00:45:15;;;;;;;8.23;7.10;;;;;;;20.04;100.00;96409.25;5048708;27;105911;-63
2022/07/26 00:47:42;;;;;;;8.87;7.70;;;;;;;20.10;100.00;96394.53;5050765;27;101879;-62
2022/07/26 00:50:13;;;;;;;8.70;7.80;;;;;;;20.10;100.00;96393.75;5053709;27;102295;-62
2022/07/26 00:52:42;;;;;;;6.20;5.60;;;;;;;19.93;100.00;96385.50;5050659;27;102205;-62
2022/07/26 00:55:12;;;;;;;7.63;5.87;;;;;;;20.04;100.00;96376.03;5050684;27;102987;-62
2022/07/26 00:57:39;;;;;;;6.23;5.60;;;;;;;20.00;100.00;96380.50;5048648;27;103870;-62
2022/07/26 01:00:10;;;;;;;6.50;5.00;;;;;;;19.86;100.00;96374.38;5048086;27;102018;-63
2022/07/26 01:02:37;;;;;;;6.07;5.50;;;;;;;19.82;100.00;96373.38;5050936;27;102228;-63
2022/07/26 01:05:05;;;;;;;5.80;5.20;;;;;;;19.84;100.00;96373.88;5049845;27;102689;-62
2022/07/26 01:07:32;;;;;;;6.30;5.43;;;;;;;19.71;100.00;96377.44;5049049;27;101960;-62
2022/07/26 01:09:59;;;;;;;6.17;5.50;;;;;;;19.76;100.00;96363.81;5050389;27;102719;-62
2022/07/26 01:12:28;;;;;;;5.60;5.10;;;;;;;19.71;100.00;96366.66;5051923;27;105764;-62
2022/07/26 01:14:55;;;;;;;5.73;5.17;;;;;;;19.61;100.00;96367.69;5050524;27;102485;-62
2022/07/26 01:17:22;;;;;;;6.83;5.77;;;;;;;19.58;100.00;96372.91;5049962;27;102619;-62
2022/07/26 01:19:49;;;;;;;6.13;5.53;;;;;;;19.66;100.00;96364.06;5050444;27;101874;-62
2022/07/26 01:22:18;;;;;;;7.93;6.17;;;;;;;19.56;100.00;96358.94;5050251;27;102713;-63
2022/07/26 01:24:46;;;;;;;9.10;6.00;;;;;;;19.51;100.00;96350.97;5049475;27;103218;-62
2022/07/26 01:27:13;;;;;;;7.17;6.13;;;;;;;19.59;100.00;96337.56;5048715;27;102255;-63
2022/07/26 01:29:40;;;;;;;5.97;5.37;;;;;;;19.63;100.00;96297.25;5050275;27;102462;-62
2022/07/26 01:32:08;;;;;;;6.67;6.03;;;;;;;19.65;100.00;96243.78;5049810;27;102067;-62
2022/07/26 01:34:36;;;;;;;6.73;6.10;;;;;;;19.53;100.00;96224.69;5053398;27;101908;-63
2022/07/26 01:37:04;;;;;;;5.77;5.27;;;;;;;19.42;100.00;96202.59;5049862;27;102576;-62
2022/07/26 01:39:33;;;;;;;7.83;6.10;;;;;;;19.43;100.00;96181.78;5049795;27;101915;-62
2022/07/26 01:42:00;;;;;;;6.40;5.80;;;;;;;19.42;100.00;96145.16;5048661;27;105590;-63
2022/07/26 01:44:27;;;;;;;5.27;4.53;;;;;;;19.34;100.00;96119.72;5049260;27;102882;-63
2022/07/26 01:46:54;;;;;;;6.43;4.57;;;;;;;19.25;100.00;96115.44;5048727;27;101840;-63
2022/07/26 01:49:21;;;;;;;4.80;3.80;;;;;;;19.19;100.00;96108.56;5048497;27;105590;-63
2022/07/26 01:51:48;;;;;;;6.20;3.90;;;;;;;19.17;100.00;96116.13;5047497;27;106025;-63
2022/07/26 01:54:15;;;;;;;4.60;4.07;;;;;;;19.14;100.00;96120.25;5049970;27;101834;-63
2022/07/26 01:56:44;;;;;;;4.40;4.00;;;;;;;19.07;100.00;96119.13;5052891;27;102479;-63
2022/07/26 01:59:11;;;;;;;4.00;3.60;;;;;;;19.13;100.00;96139.44;5049747;27;102383;-63
2022/07/26 02:01:38;;;;;;;5.03;3.97;;;;;;;19.16;100.00;96131.53;5048463;27;105774;-62
2022/07/26 02:04:05;;;;;;;4.77;4.00;;;;;;;19.19;100.00;96170.56;5049262;27;102915;-63
2022/07/26 02:06:32;;;;;;;7.07;4.17;;;;;;;19.01;100.00;96203.91;5050015;27;101746;-63
2022/07/26 02:08:59;;;;;;;5.10;4.60;;;;;;;18.88;100.00;96229.81;5049649;27;102644;-63
2022/07/26 02:11:26;;;;;;;6.80;5.53;;;;;;;18.78;100.00;96221.16;5050051;27;104321;-63
2022/07/26 02:13:55;;;;;;;5.80;5.30;;;;;;;18.79;100.00;96199.31;5051795;27;101883;-62
2022/07/26 02:16:23;;;;;;;6.43;5.47;;;;;;;18.87;100.00;96189.69;5052014;27;105137;-62
2022/07/26 02:18:50;;;;;;;6.20;5.63;;;;;;;18.92;100.00;96190.34;5055634;27;101858;-63
2022/07/26 02:21:17;;;;;;;7.77;5.40;;;;;;;19.05;100.00;96199.47;5053462;27;102703;-62
2022/07/26 02:23:44;;;;;;;7.30;5.03;;;;;;;19.07;100.00;96211.53;5050633;27;104811;-62
2022/07/26 02:26:11;;;;;;;6.67;5.20;;;;;;;19.09;100.00;96208.56;5053247;27;101889;-63
2022/07/26 02:28:38;;;;;;;5.70;5.13;;;;;;;19.17;100.00;96213.19;5053440;27;102900;-62
2022/07/26 02:31:07;;;;;;;5.63;4.80;;;;;;;19.18;100.00;96229.06;5052319;27;102806;-63
2022/07/26 02:33:34;;;;;;;5.23;4.80;;;;;;;19.21;100.00;96227.66;5052988;27;101770;-63
2022/07/26 02:36:01;;;;;;;4.70;4.30;;;;;;;19.25;100.00;96216.00;5053015;27;102507;-63
2022/07/26 02:38:28;;;;;;;7.83;4.43;;;;;;;19.28;100.00;96228.03;5055124;27;102044;-63
2022/07/26 02:40:56;;;;;;;5.80;4.53;;;;;;;19.26;100.00;96222.16;5051408;27;105334;-63
2022/07/26 02:43:23;;;;;;;5.57;5.07;;;;;;;19.31;100.00;96222.84;5052259;27;103137;-63
2022/07/26 02:45:50;;;;;;;5.00;4.50;;;;;;;19.27;100.00;96226.44;5051473;27;101990;-63
2022/07/26 02:48:18;;;;;;;5.03;4.57;;;;;;;19.23;100.00;96230.88;5051369;27;105723;-63
2022/07/26 02:50:45;;;;;;;5.10;4.60;;;;;;;19.23;100.00;96212.78;5052052;27;101968;-63
2022/07/26 02:53:12;;;;;;;5.13;4.70;;;;;;;19.27;100.00;96215.66;5052163;27;101729;-63
2022/07/26 02:55:40;;;;;;;4.70;4.30;;;;;;;19.32;100.00;96213.63;5051397;27;105603;-63
2022/07/26 02:58:07;;;;;;;4.83;4.30;;;;;;;19.32;100.00;96212.84;5050526;27;105361;-63
2022/07/26 03:00:34;;;;;;;5.80;4.50;;;;;;;19.34;100.00;96219.50;5054450;27;101901;-63
2022/07/26 03:03:01;;;;;;;4.67;4.27;;;;;;;19.22;100.00;96218.47;5051673;27;104186;-64
2022/07/26 03:05:30;;;;;;;6.63;4.70;;;;;;;19.21;100.00;96235.75;5051127;27;101952;-63
2022/07/26 03:07:57;;;;;;;4.60;4.30;;;;;;;19.17;100.00;96245.53;5050955;27;105134;-63
2022/07/26 03:10:24;;;;;;;4.57;4.27;;;;;;;19.22;100.00;96250.84;5051757;27;102609;-64
2022/07/26 03:12:52;;;;;;;5.27;4.43;;;;;;;19.19;100.00;96256.81;5052154;27;101818;-62
2022/07/26 03:15:18;;;;;;;7.17;4.43;;;;;;;19.22;100.00;96259.72;5050894;27;106582;-62
2022/07/26 03:17:46;;;;;;;4.67;4.10;;;;;;;19.17;100.00;96257.13;5050201;27;105867;-63
2022/07/26 03:20:13;;;;;;;4.67;3.90;;;;;;;19.21;100.00;96260.00;5051956;27;101829;-63
2022/07/26 03:22:43;;;;;;;5.87;4.07;;;;;;;19.25;100.00;96253.75;5053676;27;102352;-63
2022/07/26 03:25:10;;;;;;;5.27;4.13;;;;;;;19.25;100.00;96242.94;5052005;27;101833;-63
2022/07/26 03:27:38;;;;;;;5.03;4.53;;;;;;;19.29;100.00;96232.34;5052086;27;102328;-63
2022/07/26 03:30:06;;;;;;;4.80;4.30;;;;;;;19.25;100.00;96245.66;5051363;27;102773;-62
2022/07/26 03:32:33;;;;;;;8.90;5.30;;;;;;;19.15;100.00;96245.06;5052137;27;101807;-63
2022/07/26 03:35:00;;;;;;;10.33;4.93;;;;;;;19.21;100.00;96227.66;5051867;27;102733;-62
2022/07/26 03:37:27;;;;;;;6.93;4.70;;;;;;;19.27;100.00;96216.47;5049845;27;105489;-63
2022/07/26 03:39:56;;;;;;;5.30;4.80;;;;;;;19.37;100.00;96227.00;5051645;27;101932;-63
2022/07/26 03:42:23;;;;;;;5.10;4.43;;;;;;;19.30;100.00;96236.63;5051740;27;102356;-63
2022/07/26 03:44:50;;;;;;;5.57;4.40;;;;;;;19.25;100.00;96237.56;5054698;27;103209;-62
2022/07/26 03:47:17;;;;;;;4.77;4.30;;;;;;;19.24;100.00;96225.16;5051849;27;103411;-63
2022/07/26 03:49:45;;;;;;;5.37;3.90;;;;;;;19.18;100.00;96228.28;5049793;27;105940;-63
2022/07/26 03:52:12;;;;;;;4.50;4.10;;;;;;;19.27;100.00;96221.06;5051070;27;102035;-63
2022/07/26 03:54:39;;;;;;;5.10;4.03;;;;;;;19.27;100.00;96226.44;5050179;27;105527;-63
2022/07/26 03:57:07;;;;;;;5.40;3.90;;;;;;;19.28;100.00;96217.25;5049794;27;104337;-63
2022/07/26 03:59:34;;;;;;;4.03;3.70;;;;;;;19.31;100.00;96209.34;5050296;27;102016;-63
2022/07/26 04:02:01;;;;;;;4.13;3.80;;;;;;;19.38;100.00;96209.69;5050099;27;105678;-63
2022/07/26 04:04:28;;;;;;;4.30;3.90;;;;;;;19.41;100.00;96211.00;5050505;27;103117;-63
2022/07/26 04:06:56;;;;;;;4.03;3.73;;;;;;;19.47;100.00;96204.34;5054982;27;101828;-63
2022/07/26 04:09:23;;;;;;;4.07;3.77;;;;;;;19.50;100.00;96195.66;5049355;27;105519;-63
2022/07/26 04:11:50;;;;;;;3.90;3.50;;;;;;;19.50;100.00;96198.34;5049861;27;101873;-63
2022/07/26 04:14:20;;;;;;;3.50;3.20;;;;;;;19.52;100.00;96196.13;5049928;27;104023;-63
2022/07/26 04:16:46;;;;;;;5.47;3.07;;;;;;;19.37;100.00;96200.03;5049211;27;105432;-63
2022/07/26 04:19:14;;;;;;;3.97;3.53;;;;;;;19.27;100.00;96210.25;5049808;27;101971;-63
2022/07/26 04:21:41;;;;;;;4.20;3.80;;;;;;;19.23;100.00;96204.69;5051215;27;102309;-63
2022/07/26 04:24:09;;;;;;;4.43;4.03;;;;;;;19.12;100.00;96208.72;5049041;27;105608;-63
2022/07/26 04:26:37;;;;;;;4.53;4.13;;;;;;;19.09;100.00;96211.25;5053385;27;101979;-63
2022/07/26 04:29:04;;;;;;;4.40;4.00;;;;;;;19.03;100.00;96215.94;5048674;27;105485;-63
2022/07/26 04:31:33;;;;;;;6.37;4.67;;;;;;;19.06;100.00;96219.94;5049903;27;101965;-63
2022/07/26 04:34:00;;;;;;;5.87;4.63;;;;;;;18.99;100.00;96228.47;5049219;27;105170;-63
2022/07/26 04:36:27;;;;;;;5.07;4.20;;;;;;;18.99;100.00;96231.16;5048928;27;105417;-62
2022/07/26 04:38:55;;;;;;;5.63;4.50;;;;;;;19.06;100.00;96228.84;5050450;27;101974;-63
2022/07/26 04:41:22;;;;;;;5.23;4.73;;;;;;;19.03;100.00;96232.13;5050957;27;102331;-63
2022/07/26 04:43:49;;;;;;;4.67;4.27;;;;;;;19.03;100.00;96242.13;5048725;27;103947;-63
2022/07/26 04:46:18;;;;;;;4.20;3.80;;;;;;;19.01;100.00;96239.72;5050608;27;102025;-63
2022/07/26 04:48:47;;;;;;;6.93;4.00;;;;;;;19.14;100.00;96235.38;5053103;27;102343;-63
2022/07/26 04:51:14;;;;;;;3.93;3.47;;;;;;;19.17;100.00;96237.44;5048739;27;101913;-63
2022/07/26 04:53:44;;;;;;;3.60;3.30;;;;;;;19.18;100.00;96236.38;5049080;27;104460;-63
2022/07/26 04:56:52;;;;;;;4.73;3.43;;;;;;;19.19;100.00;96224.47;5049021;27;105383;-64
2022/07/26 04:59:19;;;;;;;3.80;3.47;;;;;;;19.19;100.00;96232.56;5050945;27;101794;-63
2022/07/26 05:01:46;;;;;;;4.03;3.63;;;;;;;19.21;100.00;96246.53;5051052;27;102553;-63
2022/07/26 05:04:21;;;;;;;3.93;3.27;;;;;;;19.23;100.00;96244.38;5044497;27;104043;-64
2022/07/26 05:06:48;;;;;;;3.50;3.20;;;;;;;19.19;100.00;96251.44;5045907;27;102206;-62
2022/07/26 05:09:15;;;;;;;5.53;3.60;;;;;;;19.19;100.00;96235.25;5048290;27;102376;-64
2022/07/26 05:11:42;;;;;;;3.67;3.37;;;;;;;19.21;100.00;96243.81;5050059;27;103098;-64
2022/07/26 05:14:09;;;;;;;3.37;3.07;;;;;;;19.23;100.00;96253.22;5037442;27;105572;-63
2022/07/26 05:16:36;;;;;;;5.13;3.90;;;;;;;19.20;100.00;96250.31;5042835;27;102732;-63
2022/07/26 05:19:03;;;;;;;4.50;3.40;;;;;;;19.26;100.00;96252.63;5043840;27;101899;-63
2022/07/26 05:21:32;;;;;;;3.97;3.40;;;;;;;19.26;100.00;96258.03;5040692;27;102247;-63
2022/07/26 05:23:59;;;;;;;5.23;3.50;;;;;;;19.31;100.00;96260.59;5040936;27;105775;-63
2022/07/26 05:26:26;;;;;;;4.60;3.60;;;;;;;19.36;100.00;96273.13;5044160;27;101884;-63
2022/07/26 05:28:54;;;;;;;4.83;3.73;;;;;;;19.41;100.00;96267.63;5042019;27;102328;-63
2022/07/26 05:31:21;;;;;;;5.20;3.73;;;;;;;19.39;100.00;96267.13;5041521;27;102745;-63
2022/07/26 05:33:48;;;;;;;3.90;3.50;;;;;;;19.45;100.00;96265.91;5026396;27;101928;-63
2022/07/26 05:36:14;;;;;;;4.27;3.87;;;;;;;19.58;100.00;96259.63;5046400;27;106110;-63
2022/07/26 05:38:44;;;;;;;3.90;3.60;;;;;;;19.68;100.00;96264.75;5037255;27;102026;-64
2022/07/26 05:41:11;;;;;;;3.73;3.43;;;;;;;19.79;100.00;96266.84;5029572;27;105961;-65
2022/07/26 05:43:38;;;;;;;3.77;3.47;;;;;;;19.82;100.00;96260.03;5033445;27;105122;-64
2022/07/26 05:46:05;;;;;;;5.83;4.10;;;;;;;19.68;100.00;96267.44;5036680;27;102039;-64
2022/07/26 05:48:32;;;;;;;5.73;3.73;;;;;;;19.65;100.00;96276.16;5031778;27;105141;-64
2022/07/26 05:50:59;;;;;;;3.90;3.60;;;;;;;19.51;100.00;96275.47;5031399;28;103792;-64
2022/07/26 05:53:27;;;;;;;3.90;3.60;;;;;;;19.58;100.00;96278.50;5037179;27;101898;-64
2022/07/26 05:55:55;;;;;;;3.90;3.50;;;;;;;19.56;100.00;96281.50;5056676;27;103005;-64
2022/07/26 05:58:22;;;;;;;3.80;3.50;;;;;;;19.61;100.00;96281.38;5051622;27;101993;-64
2022/07/26 06:00:50;;;;;;;3.83;3.53;;;;;;;19.58;100.00;96279.31;5044489;27;105459;-64
2022/07/26 06:03:23;;;;;;;4.00;3.43;;;;;;;19.62;100.00;96266.00;5043931;27;106055;-64
2022/07/26 06:05:51;;;;;;;3.80;3.30;;;;;;;19.56;100.00;96275.31;5045111;27;102098;-64
2022/07/26 06:08:19;;;;;;;3.50;3.30;;;;;;;19.58;100.00;96278.50;5051924;27;102525;-64
2022/07/26 06:10:46;;;;;;;3.97;3.60;;;;;;;19.54;100.00;96272.94;5051255;27;105901;-64
2022/07/26 06:13:16;;;;;;;3.70;3.40;;;;;;;19.57;100.00;96277.69;5048318;27;103792;-64
2022/07/26 06:15:43;;;;;;;4.20;3.47;;;;;;;19.86;100.00;96274.50;5042331;27;104941;-65
2022/07/26 06:18:10;;;;;;;4.23;3.93;;;;;;;19.97;100.00;96265.81;5043105;27;105547;-64
2022/07/26 06:20:39;;;;;;;4.40;3.90;;;;;;;20.11;100.00;96266.53;5052327;27;104116;-66
2022/07/26 06:23:14;;;;;;;4.47;3.90;;;;;;;20.38;100.00;96265.50;5040838;27;102688;-66
2022/07/26 06:25:42;;;;;;;4.83;3.87;;;;;;;20.42;100.00;96266.44;5051208;27;101782;-65
2022/07/26 06:28:25;;;;;;;5.03;3.80;;;;;;;20.85;100.00;96261.88;5044310;27;102672;-66
2022/07/26 06:30:52;;;;;;;3.83;3.53;;;;;;;20.74;100.00;96253.31;5036138;27;103162;-64
2022/07/26 06:33:26;;;;;;;5.43;3.80;;;;;;;20.70;100.00;96259.66;5046947;27;102050;-65
2022/07/26 06:35:53;;;;;;;4.07;3.67;;;;;;;20.15;100.00;96255.88;5038436;27;105299;-64
2022/07/26 06:38:20;;;;;;;3.97;3.40;;;;;;;20.21;100.00;96254.66;5038139;27;103890;-64
2022/07/26 06:40:47;;;;;;;4.50;3.63;;;;;;;20.16;100.00;96247.47;5051111;27;104782;-65
2022/07/26 06:43:15;;;;;;;3.93;3.60;;;;;;;20.22;100.00;96256.25;5052091;27;102638;-67
2022/07/26 06:45:44;;;;;;;3.77;3.47;;;;;;;19.93;100.00;96261.34;5049503;27;101969;-65
2022/07/26 06:48:13;;;;;;;4.13;3.73;;;;;;;19.83;100.00;96250.84;5036378;27;102363;-65
2022/07/26 06:50:40;;;;;;;3.90;3.60;;;;;;;19.88;100.00;96253.38;5045385;27;105664;-66
2022/07/26 06:53:07;;;;;;;5.13;3.70;;;;;;;19.94;100.00;96260.25;5047056;27;102341;-65
2022/07/26 06:55:34;;;;;;;3.90;3.60;;;;;;;19.81;100.00;96266.53;5031372;27;105150;-67
2022/07/26 06:58:03;;;;;;;4.33;3.93;;;;;;;19.72;100.00;96260.34;5032080;27;102870;-67
2022/07/26 07:00:30;;;;;;;4.30;3.90;;;;;;;19.77;100.00;96260.16;5053798;27;102078;-66
2022/07/26 07:03:04;;;;;;;4.50;4.10;;;;;;;19.83;100.00;96262.44;5052135;27;102898;-66
2022/07/26 07:05:31;;;;;;;4.00;3.30;;;;;;;19.99;100.00;96268.22;5031172;28;102085;-66
2022/07/26 07:07:58;;;;;;;4.07;3.77;;;;;;;19.95;100.00;96265.31;5032272;28;102110;-65
2022/07/26 07:10:26;;;;;;;4.37;3.70;;;;;;;19.91;100.00;96264.38;5031684;28;102736;-65
2022/07/26 07:13:09;;;;;;;5.50;3.70;;;;;;;19.91;100.00;96264.38;5030903;28;102001;-65
2022/07/26 07:15:37;;;;;;;3.50;3.20;;;;;;;20.05;100.00;96265.06;5032678;27;104711;-65
2022/07/26 07:18:05;;;;;;;3.50;3.20;;;;;;;20.02;100.00;96254.91;5030087;28;103862;-66
2022/07/26 07:20:33;;;;;;;3.13;2.90;;;;;;;19.93;100.00;96261.34;5038567;27;101860;-65
2022/07/26 07:23:05;;;;;;;5.33;3.53;;;;;;;20.03;100.00;96261.06;5053042;27;105116;-66
2022/07/26 07:25:33;;;;;;;3.57;3.10;;;;;;;19.84;100.00;96260.53;5031899;27;102114;-65
2022/07/26 07:28:48;;;;;;;4.43;3.17;;;;;;;19.98;100.00;96264.72;5041626;27;106197;-65
2022/07/26 07:31:15;;;;;;;4.07;3.00;;;;;;;20.01;100.00;96268.69;5031667;28;101944;-65
2022/07/26 07:33:53;;;;;;;3.60;3.10;;;;;;;20.04;100.00;96278.84;5033071;27;103445;-66
2022/07/26 07:36:21;;;;;;;3.43;3.20;;;;;;;19.85;100.00;96287.22;5014020;27;104254;-66
2022/07/26 07:38:48;;;;;;;3.57;3.27;;;;;;;19.78;100.00;96283.38;5035176;27;105656;-65
2022/07/26 07:41:15;;;;;;;3.70;3.40;;;;;;;19.77;100.00;96295.25;5050649;27;101924;-66
2022/07/26 07:43:45;;;;;;;4.67;3.50;;;;;;;19.83;100.00;96302.13;5040460;27;105007;-65
2022/07/26 07:46:12;;;;;;;4.23;3.83;;;;;;;19.72;100.00;96303.50;5047100;27;105616;-65
2022/07/26 07:48:40;;;;;;;4.00;3.60;;;;;;;19.63;100.00;96300.72;5050750;27;104972;-65
2022/07/26 07:51:09;;;;;;;4.57;4.17;;;;;;;19.77;100.00;96311.44;5048049;27;105239;-65
2022/07/26 07:54:29;;;;;;;6.87;4.40;;;;;;;19.74;100.00;96307.50;5043284;27;102068;-65
2022/07/26 07:57:02;;;;;;;5.13;4.40;;;;;;;19.82;100.00;96309.41;5047058;27;104196;-65
2022/07/26 07:59:29;;;;;;;4.50;4.10;;;;;;;19.92;100.00;96302.94;5049811;27;102794;-65
2022/07/26 08:01:57;;;;;;;4.77;4.30;;;;;;;20.07;100.00;96300.69;5039116;27;102074;-67
2022/07/26 08:04:25;;;;;;;7.33;4.43;;;;;;;20.07;100.00;96303.38;5040296;27;105099;-66
2022/07/26 08:06:54;;;;;;;4.03;3.73;;;;;;;20.07;100.00;96305.28;5049454;27;105056;-66
2022/07/26 08:09:21;;;;;;;4.23;3.93;;;;;;;19.92;100.00;96309.16;5039917;27;101953;-66
2022/07/26 08:11:49;;;;;;;4.07;3.70;;;;;;;20.06;100.00;96309.84;5030090;27;103972;-66
2022/07/26 08:14:16;;;;;;;3.47;3.17;;;;;;;20.19;100.00;96310.88;5050131;27;102092;-66
2022/07/26 08:16:43;;;;;;;3.50;3.20;;;;;;;20.21;100.00;96311.38;5031018;27;106187;-65
2022/07/26 08:19:10;;;;;;;3.33;3.13;;;;;;;20.36;100.00;96313.63;5040486;27;105160;-64
2022/07/26 08:21:37;;;;;;;3.70;3.33;;;;;;;20.50;100.00;96314.31;5043680;27;101828;-66
2022/07/26 08:24:10;;;;;;;4.00;3.50;;;;;;;20.25;100.00;96313.13;5033206;27;102627;-65
2022/07/26 08:26:42;;;;;;;3.50;3.20;;;;;;;20.57;100.00;96309.22;5030635;27;103077;-67
2022/07/26 08:29:09;;;;;;;3.93;3.50;;;;;;;20.80;100.00;96310.69;5051256;27;101876;-67
2022/07/26 08:31:36;;;;;;;4.67;3.67;;;;;;;20.99;100.00;96312.00;5051042;27;103877;-65
2022/07/26 08:34:04;;;;;;;3.40;3.07;;;;;;;20.82;100.00;96311.19;5048183;27;101871;-67
2022/07/26 08:36:32;;;;;;;3.60;3.30;;;;;;;21.01;100.00;96309.78;5040904;27;102485;-65
2022/07/26 08:38:59;;;;;;;4.03;3.10;;;;;;;21.06;100.00;96316.94;5046679;27;105137;-67
2022/07/26 08:41:28;;;;;;;3.23;3.03;;;;;;;20.74;100.00;96318.16;5050893;27;101975;-66
2022/07/26 08:44:10;;;;;;;3.87;3.40;;;;;;;20.64;100.00;96310.34;5046229;27;105944;-66
2022/07/26 08:46:38;;;;;;;3.90;3.50;;;;;;;20.52;100.00;96323.69;5050072;27;102555;-66
2022/07/26 08:49:08;;;;;;;4.10;3.23;;;;;;;20.70;100.00;96319.13;5050811;27;101849;-66
2022/07/26 08:51:38;;;;;;;3.60;3.30;;;;;;;20.58;100.00;96321.63;5051832;27;102298;-67
2022/07/26 08:54:25;;;;;;;3.40;3.10;;;;;;;20.28;100.00;96327.91;5036472;27;101777;-72
2022/07/26 08:57:32;;;;;;;4.27;3.30;;;;;;;20.52;100.00;96339.91;5029177;27;104832;-67
2022/07/26 09:00:16;;;;;;;3.60;3.10;;;;;;;20.59;100.00;96339.44;5030122;28;102938;-66
2022/07/26 09:02:44;;;;;;;3.63;3.33;;;;;;;20.58;100.00;96340.53;5033300;27;102006;-65
2022/07/26 09:05:11;;;;;;;3.70;3.40;;;;;;;20.63;100.00;96345.78;5033712;27;102597;-66
2022/07/26 09:07:38;;;;;;;3.80;3.50;;;;;;;20.50;100.00;96346.72;5042703;27;102765;-66
2022/07/26 09:10:08;;;;;;;3.80;3.37;;;;;;;20.29;100.00;96349.22;5048704;27;102107;-66
2022/07/26 09:12:37;;;;;;;3.20;3.00;;;;;;;20.32;100.00;96353.19;5043171;27;102382;-71
2022/07/26 09:15:17;;;;;;;3.93;3.07;;;;;;;20.35;100.00;96360.66;5046513;27;104474;-69
2022/07/26 09:17:47;;;;;;;3.77;3.47;;;;;;;20.29;100.00;96354.63;5048083;27;106053;-66
2022/07/26 09:20:17;;;;;;;4.00;3.60;;;;;;;20.48;100.00;96357.06;5049180;27;105479;-69
2022/07/26 09:23:02;;;;;;;3.67;3.27;;;;;;;20.27;100.00;96361.44;5052320;27;101862;-68
2022/07/26 09:25:32;;;;;;;3.67;3.30;;;;;;;20.27;100.00;96358.72;5048822;27;103711;-67
2022/07/26 09:28:23;;;;;;;3.40;3.07;;;;;;;20.19;100.00;96362.97;5043977;27;105949;-67
2022/07/26 09:30:53;;;;;;;3.70;2.70;;;;;;;20.08;100.00;96363.56;5045310;27;102100;-68
2022/07/26 09:33:47;;;;;;;4.20;2.53;;;;;;;20.56;100.00;96358.97;5047610;27;102471;-68
2022/07/26 09:36:16;;;;;;;3.10;2.40;;;;;;;20.54;100.00;96355.81;5050488;27;105842;-69
2022/07/26 09:38:46;;;;;;;3.20;2.10;;;;;;;20.51;100.00;96359.13;5055695;27;102080;-68
2022/07/26 09:41:20;;;;;;;3.00;2.13;;;;;;;20.59;100.00;96350.25;5036906;27;102879;-67
2022/07/26 09:44:19;;;;;;;2.20;2.00;;;;;;;20.52;100.00;96349.91;5041885;27;102066;-68
2022/07/26 09:46:52;;;;;;;1.63;1.50;;;;;;;20.51;100.00;96353.72;5051489;27;105117;-68
2022/07/26 09:49:22;;;;;;;1.70;1.60;;;;;;;20.38;100.00;96360.03;5052526;27;103284;-67
2022/07/26 09:51:50;;;;;;;1.97;1.87;;;;;;;20.38;100.00;96358.13;5040147;27;102398;-67
2022/07/26 09:54:32;;;;;;;1.90;1.80;;;;;;;20.78;100.00;96353.47;5042898;27;105226;-67
2022/07/26 09:57:06;;;;;;;2.67;1.60;;;;;;;20.54;100.00;96356.59;5049646;27;105498;-68
2022/07/26 09:59:33;;;;;;;1.70;1.60;;;;;;;20.56;100.00;96367.09;5050585;27;101885;-68
2022/07/26 10:02:01;;;;;;;3.13;1.77;;;;;;;20.25;100.00;96366.31;5049971;27;102419;-68
2022/07/26 10:04:32;;;;;;;3.20;1.87;;;;;;;20.00;100.00;96380.50;5050448;27;101957;-68
2022/07/26 10:07:00;;;;;;;2.07;1.87;;;;;;;19.70;100.00;96386.66;5042303;27;105591;-68
2022/07/26 10:09:37;;;;;;;1.83;1.70;;;;;;;19.31;100.00;96383.81;5031232;28;106006;-68
2022/07/26 10:12:07;;;;;;;2.10;1.90;;;;;;;19.48;100.00;96390.16;5052225;27;103178;-68
2022/07/26 10:14:45;;;;;;;2.07;1.97;;;;;;;19.66;100.00;96374.88;5051865;27;105298;-68
2022/07/26 10:17:40;;;;;;;1.87;1.77;;;;;;;19.83;100.00;96370.38;5041032;27;102595;-68
2022/07/26 10:20:11;;;;;;;2.00;1.80;;;;;;;19.91;100.00;96368.84;5033607;27;101710;-68
2022/07/26 10:22:44;;;;;;;2.00;1.90;;;;;;;20.11;100.00;96371.06;5032191;27;103968;-68
2022/07/26 10:25:46;;;;;;;2.60;2.40;;;;;;;20.45;100.00;96371.19;5043491;27;102846;-68
2022/07/26 10:28:27;;;;;;;2.60;2.40;;;;;;;20.66;100.00;96372.19;5053310;27;102247;-68
2022/07/26 10:31:25;;;;;;;4.33;2.43;;;;;;;20.49;100.00;96377.56;5045673;27;105819;-68
2022/07/26 10:33:54;;;;;;;3.03;2.73;;;;;;;20.52;100.00;96376.91;5043378;27;103585;-68
2022/07/26 10:36:32;;;;;;;2.83;2.60;;;;;;;20.37;100.00;96380.03;5034701;27;105201;-68
2022/07/26 10:39:05;;;;;;;3.40;2.07;;;;;;;20.33;100.00;96379.09;5031819;27;102107;-68
2022/07/26 10:41:35;;;;;;;2.70;2.50;;;;;;;20.45;100.00;96387.38;5031679;28;101816;-68
2022/07/26 10:44:23;;;;;;;2.80;2.53;;;;;;;20.50;100.00;96387.25;5050552;27;102532;-68
2022/07/26 10:47:18;;;;;;;2.13;2.03;;;;;;;20.27;100.00;96380.34;5051795;27;102581;-68
2022/07/26 10:49:57;;;;;;;2.20;2.00;;;;;;;20.44;100.00;96378.47;4985820;28;102134;-68
2022/07/26 10:52:28;;;;;;;2.10;2.00;;;;;;;20.55;100.00;96376.31;5031202;28;104631;-68
2022/07/26 10:55:07;;;;;;;2.10;1.93;;;;;;;20.80;100.00;96372.84;5031259;28;102362;-68
2022/07/26 10:57:36;;;;;;;2.10;1.90;;;;;;;20.53;100.00;96365.81;5030526;28;104409;-68
2022/07/26 11:00:09;;;;;;;2.10;2.00;;;;;;;20.71;100.00;96370.13;5031395;28;104318;-68
2022/07/26 11:02:37;;;;;;;2.03;1.70;;;;;;;20.94;100.00;96363.56;5047727;27;102134;-68
2022/07/26 11:05:11;;;;;;;1.83;1.73;;;;;;;21.01;100.00;96360.38;5052006;27;101836;-68
2022/07/26 11:07:51;;;;;;;1.80;1.70;;;;;;;21.05;100.00;96364.84;5051964;27;102804;-68
2022/07/26 11:10:24;;;;;;;2.20;2.00;;;;;;;20.90;100.00;96356.38;5054508;27;101874;-68
2022/07/26 11:12:59;;;;;;;2.03;1.90;;;;;;;21.40;100.00;96349.38;5051631;27;103179;-68
2022/07/26 11:15:27;;;;;;;2.00;1.87;;;;;;;22.03;100.00;96347.56;5051009;27;102037;-68
2022/07/26 11:18:06;;;;;;;2.13;2.03;;;;;;;22.06;100.00;96351.53;5052322;27;102841;-68
2022/07/26 11:20:34;;;;;;;1.93;1.83;;;;;;;22.52;100.00;96348.81;5051870;27;102608;-68
2022/07/26 11:23:02;;;;;;;1.90;1.80;;;;;;;22.24;100.00;96340.28;5052041;27;102083;-68
2022/07/26 11:25:30;;;;;;;1.80;1.70;;;;;;;22.53;100.00;96332.25;5051962;27;102304;-68
2022/07/26 11:28:01;;;;;;;2.23;1.80;;;;;;;23.20;100.00;96338.34;5051494;27;102781;-68
2022/07/26 11:30:29;;;;;;;1.40;1.30;;;;;;;23.01;100.00;96327.16;5039652;27;101964;-63